Time;durP1;ratioP1;P1;durP2;ratioP2;P2;SDS_P1;SDS_P2;PMS_P1;PMS_P2;Temp;Humidity;BMP_temperature;BMP_pressure;BME280_temperature;BME280_humidity;BME280_pressure;Samples;Min_cycle;Max_cycle;Signal;HPM_P1;HPM_P2
2024/02/05 00:00:29;;;;;;;;;;;;;;;21.18;25.81;97775.13;5058410;28;808;-76
2024/02/05 00:02:56;;;;;;;;;;;;;;;21.53;25.27;97770.50;5040433;28;896;-76
2024/02/05 00:05:21;;;;;;;;;;;;;;;21.63;25.25;97775.03;5023917;28;1270;-76
2024/02/05 00:07:47;;;;;;;;;;;;;;;21.71;25.05;97773.59;5040520;28;1010;-76
2024/02/05 00:10:13;;;;;;;;;;;;;;;21.58;25.23;97767.09;5058373;28;991;-76
2024/02/05 00:12:38;;;;;;;;;;;;;;;21.65;25.04;97772.53;5016025;28;1010;-76
2024/02/05 00:15:05;;;;;;;;;;;;;;;21.74;24.97;97761.34;4999964;28;933;-76
2024/02/05 00:17:31;;;;;;;;;;;;;;;21.36;25.43;97766.94;5016357;28;1993;-76
2024/02/05 00:19:56;;;;;;;;;;;;;;;21.61;25.01;97771.09;4999813;28;1008;-76
2024/02/05 00:22:22;;;;;;;;;;;;;;;21.49;25.34;97764.13;4983013;28;1164;-76
2024/02/05 00:24:47;;;;;;;;;;;;;;;21.66;24.94;97767.66;4999895;28;1112;-75
2024/02/05 00:27:13;;;;;;;;;;;;;;;20.98;25.97;97763.94;4999315;28;1034;-76
2024/02/05 00:29:39;;;;;;;;;;;;;;;21.02;25.96;97756.16;4974217;28;1052;-75
2024/02/05 00:32:05;;;;;;;;;;;;;;;21.23;25.49;97764.03;5004795;28;1379;-75
2024/02/05 00:34:30;;;;;;;;;;;;;;;21.50;25.40;97755.22;4989868;28;1428;-75
2024/02/05 00:36:56;;;;;;;;;;;;;;;21.62;24.93;97762.13;4988218;28;1899;-75
2024/02/05 00:39:21;;;;;;;;;;;;;;;21.69;24.83;97761.13;4991008;28;1352;-75
2024/02/05 00:41:46;;;;;;;;;;;;;;;21.57;24.96;97754.19;5015942;28;1026;-76
2024/02/05 00:44:12;;;;;;;;;;;;;;;21.27;25.53;97746.97;5045953;28;1080;-76
2024/02/05 00:46:37;;;;;;;;;;;;;;;20.95;25.78;97750.72;5056145;28;986;-76
2024/02/05 00:49:04;;;;;;;;;;;;;;;21.31;25.74;97753.34;5039699;28;935;-76
2024/02/05 00:51:30;;;;;;;;;;;;;;;21.62;25.06;97730.19;5039279;28;971;-76
2024/02/05 00:53:57;;;;;;;;;;;;;;;21.71;24.93;97725.44;5039493;28;964;-75
2024/02/05 00:56:23;;;;;;;;;;;;;;;21.40;25.44;97722.38;5057068;28;1973;-76
2024/02/05 00:58:49;;;;;;;;;;;;;;;21.45;25.54;97718.16;5039497;28;1095;-75
2024/02/05 01:01:14;;;;;;;;;;;;;;;21.54;25.23;97716.25;5023021;28;966;-77
2024/02/05 01:03:42;;;;;;;;;;;;;;;21.74;25.11;97701.09;5023084;28;1367;-76
2024/02/05 01:06:08;;;;;;;;;;;;;;;21.68;25.06;97709.34;5039187;28;955;-77
2024/02/05 01:08:34;;;;;;;;;;;;;;;21.29;25.68;97716.97;5039349;28;1130;-76
2024/02/05 01:10:59;;;;;;;;;;;;;;;21.10;26.07;97717.97;5039475;28;906;-76
2024/02/05 01:13:25;;;;;;;;;;;;;;;21.31;25.90;97714.53;5034688;28;943;-76
2024/02/05 01:15:50;;;;;;;;;;;;;;;21.60;25.54;97719.31;5018428;28;1910;-76
2024/02/05 01:18:16;;;;;;;;;;;;;;;21.50;25.63;97697.78;5018098;28;1290;-76
2024/02/05 01:20:41;;;;;;;;;;;;;;;21.75;25.13;97697.78;5001812;28;1249;-76
2024/02/05 01:23:07;;;;;;;;;;;;;;;21.74;25.09;97689.75;5018499;28;909;-76
2024/02/05 01:25:32;;;;;;;;;;;;;;;21.16;25.70;97696.34;5034421;28;970;-76
2024/02/05 01:27:58;;;;;;;;;;;;;;;21.11;25.97;97677.09;5034797;28;958;-76
2024/02/05 01:30:23;;;;;;;;;;;;;;;21.24;25.75;97675.09;5034322;28;1004;-76
2024/02/05 01:32:49;;;;;;;;;;;;;;;21.41;25.83;97660.88;5018136;28;1043;-76
2024/02/05 01:35:15;;;;;;;;;;;;;;;21.42;25.55;97668.13;4997920;28;1097;-76
2024/02/05 01:37:41;;;;;;;;;;;;;;;21.23;26.03;97662.19;4998005;28;1999;-76
2024/02/05 01:40:10;;;;;;;;;;;;;;;21.30;25.87;97662.00;5014624;28;931;-76
2024/02/05 01:42:44;;;;;;;;;;;;;;;21.43;25.63;97642.19;5013700;28;1034;-76
2024/02/05 01:45:09;;;;;;;;;;;;;;;21.67;25.28;97636.97;5014443;28;1073;-76
2024/02/05 01:47:36;;;;;;;;;;;;;;;21.51;25.60;97631.44;5014537;28;964;-76
2024/02/05 01:50:02;;;;;;;;;;;;;;;21.35;25.63;97623.03;5014462;28;944;-76
2024/02/05 01:52:27;;;;;;;;;;;;;;;21.21;25.90;97619.41;5014600;28;1013;-76
2024/02/05 01:54:53;;;;;;;;;;;;;;;21.20;26.13;97617.81;5014265;28;955;-76
2024/02/05 01:57:18;;;;;;;;;;;;;;;21.30;25.84;97613.91;5014691;28;1918;-76
2024/02/05 01:59:44;;;;;;;;;;;;;;;21.29;26.11;97608.63;4997713;28;994;-76
2024/02/05 02:02:09;;;;;;;;;;;;;;;21.46;25.58;97613.00;5014402;28;977;-76
2024/02/05 02:04:35;;;;;;;;;;;;;;;21.57;25.86;97606.97;4994763;28;1135;-74
2024/02/05 02:07:01;;;;;;;;;;;;;;;21.50;25.77;97601.53;5014060;28;1033;-74
2024/02/05 02:09:28;;;;;;;;;;;;;;;21.43;25.81;97602.56;5000889;28;943;-73
2024/02/05 02:11:54;;;;;;;;;;;;;;;21.21;25.90;97595.97;5000988;28;1022;-74
2024/02/05 02:14:19;;;;;;;;;;;;;;;21.27;26.14;97594.16;5000761;28;1232;-74
2024/02/05 02:16:45;;;;;;;;;;;;;;;21.05;26.55;97585.56;5033528;28;1914;-74
2024/02/05 02:19:18;;;;;;;;;;;;;;;21.13;26.16;97586.13;5017274;28;1105;-74
2024/02/05 02:21:43;;;;;;;;;;;;;;;21.51;25.63;97581.28;5017367;28;957;-73
2024/02/05 02:24:09;;;;;;;;;;;;;;;21.45;25.86;97574.63;4984612;28;1024;-74
2024/02/05 02:26:35;;;;;;;;;;;;;;;21.43;25.86;97573.47;5017380;28;1028;-74
2024/02/05 02:29:01;;;;;;;;;;;;;;;21.29;25.79;97564.16;5033823;28;997;-74
2024/02/05 02:31:26;;;;;;;;;;;;;;;21.45;25.67;97576.63;5033770;28;944;-73
2024/02/05 02:33:56;;;;;;;;;;;;;;;21.38;25.81;97571.22;5000770;28;1023;-73
2024/02/05 02:36:24;;;;;;;;;;;;;;;21.75;25.29;97573.19;5034950;28;1902;-74
2024/02/05 02:39:11;;;;;;;;;;;;;;;21.53;25.62;97578.00;5021554;28;1271;-74
2024/02/05 02:41:38;;;;;;;;;;;;;;;21.81;25.30;97576.22;5038496;28;1024;-74
2024/02/05 02:44:03;;;;;;;;;;;;;;;21.41;25.80;97568.28;5037843;28;1026;-74
2024/02/05 02:46:29;;;;;;;;;;;;;;;21.37;25.69;97569.63;5038072;28;982;-74
2024/02/05 02:48:55;;;;;;;;;;;;;;;21.33;25.69;97576.19;5055923;28;958;-74
2024/02/05 02:51:21;;;;;;;;;;;;;;;21.62;25.66;97557.50;5038366;28;1026;-74
2024/02/05 02:53:47;;;;;;;;;;;;;;;21.71;25.61;97552.72;5038147;28;1056;-74
2024/02/05 02:56:12;;;;;;;;;;;;;;;21.86;25.45;97550.16;5059679;28;1977;-74
2024/02/05 02:58:38;;;;;;;;;;;;;;;21.62;25.59;97532.78;4981468;28;1159;-74
2024/02/05 03:01:03;;;;;;;;;;;;;;;21.22;25.83;97541.75;4965566;28;945;-74
2024/02/05 03:03:29;;;;;;;;;;;;;;;21.26;26.17;97527.50;4997795;28;1204;-73
2024/02/05 03:05:54;;;;;;;;;;;;;;;21.31;26.12;97527.75;4965448;28;1127;-74
2024/02/05 03:08:20;;;;;;;;;;;;;;;21.45;25.85;97531.34;4981390;28;1077;-74
2024/02/05 03:10:46;;;;;;;;;;;;;;;21.64;25.69;97544.44;4981644;28;1158;-74
2024/02/05 03:13:11;;;;;;;;;;;;;;;21.72;25.44;97545.81;4981173;28;926;-74
2024/02/05 03:15:37;;;;;;;;;;;;;;;21.26;25.82;97539.63;4997448;28;971;-73
2024/02/05 03:18:02;;;;;;;;;;;;;;;21.48;25.41;97530.44;4997393;28;1906;-74
2024/02/05 03:20:32;;;;;;;;;;;;;;;21.39;25.87;97524.69;4958923;29;963;-74
2024/02/05 03:22:58;;;;;;;;;;;;;;;21.39;25.90;97521.84;4942773;29;1065;-74
2024/02/05 03:25:23;;;;;;;;;;;;;;;21.20;26.29;97501.81;4958554;29;929;-74
2024/02/05 03:27:49;;;;;;;;;;;;;;;21.31;26.00;97499.47;4958381;29;1009;-74
2024/02/05 03:30:15;;;;;;;;;;;;;;;21.52;25.86;97486.63;4991573;28;924;-74
2024/02/05 03:32:40;;;;;;;;;;;;;;;21.68;25.58;97477.16;5017148;28;976;-74
2024/02/05 03:35:08;;;;;;;;;;;;;;;21.97;25.19;97465.63;5016816;28;1295;-73
2024/02/05 03:37:34;;;;;;;;;;;;;;;21.69;25.59;97460.97;5016679;28;1906;-74
2024/02/05 03:39:59;;;;;;;;;;;;;;;21.54;25.75;97455.81;5016895;28;1135;-74
2024/02/05 03:42:25;;;;;;;;;;;;;;;21.35;25.88;97453.25;5000294;28;1063;-74
2024/02/05 03:44:51;;;;;;;;;;;;;;;21.25;26.36;97450.31;4983827;28;1033;-74
2024/02/05 03:47:16;;;;;;;;;;;;;;;21.63;25.42;97463.59;5017181;28;981;-74
2024/02/05 03:49:42;;;;;;;;;;;;;;;21.51;25.84;97456.72;5016607;28;1117;-74
2024/02/05 03:52:07;;;;;;;;;;;;;;;21.77;25.16;97445.31;5000270;28;945;-74
2024/02/05 03:54:34;;;;;;;;;;;;;;;21.55;25.65;97445.25;5016583;28;1011;-73
2024/02/05 03:56:59;;;;;;;;;;;;;;;21.48;25.89;97451.19;4989456;28;1973;-74
2024/02/05 03:59:25;;;;;;;;;;;;;;;21.22;26.04;97451.22;5058349;28;956;-74
2024/02/05 04:01:50;;;;;;;;;;;;;;;21.35;26.19;97441.94;5058214;28;922;-74
2024/02/05 04:04:16;;;;;;;;;;;;;;;21.72;25.52;97438.19;5058497;28;902;-73
2024/02/05 04:06:41;;;;;;;;;;;;;;;21.75;25.44;97425.16;5057915;28;1045;-74
2024/02/05 04:09:10;;;;;;;;;;;;;;;21.82;25.34;97437.03;5040345;28;1250;-75
2024/02/05 04:11:38;;;;;;;;;;;;;;;21.75;25.23;97431.59;5023944;28;960;-75
2024/02/05 04:14:03;;;;;;;;;;;;;;;21.63;25.74;97426.78;5057106;28;1153;-75
2024/02/05 04:16:29;;;;;;;;;;;;;;;21.48;25.87;97423.66;5058090;28;2003;-75
2024/02/05 04:18:54;;;;;;;;;;;;;;;21.37;25.96;97422.47;5040290;28;1137;-75
2024/02/05 04:21:20;;;;;;;;;;;;;;;21.18;26.16;97432.78;5057605;28;892;-75
2024/02/05 04:23:45;;;;;;;;;;;;;;;21.10;26.28;97437.91;5040270;28;946;-74
2024/02/05 04:26:15;;;;;;;;;;;;;;;21.58;25.68;97427.38;5057876;28;920;-75
2024/02/05 04:28:40;;;;;;;;;;;;;;;21.61;25.49;97417.97;5040275;28;964;-75
2024/02/05 04:31:06;;;;;;;;;;;;;;;21.67;25.19;97418.97;5039973;28;1228;-74
2024/02/05 04:33:31;;;;;;;;;;;;;;;21.27;25.96;97413.84;5057787;28;796;-75
2024/02/05 04:35:57;;;;;;;;;;;;;;;21.28;26.19;97415.44;5057708;28;1902;-75
2024/02/05 04:38:22;;;;;;;;;;;;;;;21.39;25.76;97402.97;5057534;28;933;-75
2024/02/05 04:40:48;;;;;;;;;;;;;;;21.56;25.77;97418.56;5008832;28;1892;-75
2024/02/05 04:43:13;;;;;;;;;;;;;;;21.73;25.64;97417.13;5020134;28;1157;-75
2024/02/05 04:45:39;;;;;;;;;;;;;;;21.71;25.50;97425.28;5015600;28;983;-75
2024/02/05 04:48:05;;;;;;;;;;;;;;;21.63;25.69;97426.78;5015313;28;1015;-75
2024/02/05 04:50:30;;;;;;;;;;;;;;;21.82;25.22;97437.03;4998688;28;1182;-75
2024/02/05 04:52:56;;;;;;;;;;;;;;;21.59;25.61;97434.63;5015495;28;996;-75
2024/02/05 04:55:21;;;;;;;;;;;;;;;20.90;26.49;97437.34;5014897;28;1832;-75
2024/02/05 04:57:48;;;;;;;;;;;;;;;20.98;26.57;97441.53;4998737;28;1984;-75
2024/02/05 05:00:15;;;;;;;;;;;;;;;21.35;25.92;97454.06;4998822;28;1029;-75
2024/02/05 05:02:41;;;;;;;;;;;;;;;21.60;25.48;97458.84;4998172;28;1328;-75
2024/02/05 05:05:06;;;;;;;;;;;;;;;21.71;25.33;97459.28;5014568;28;1558;-74
2024/02/05 05:07:32;;;;;;;;;;;;;;;21.77;25.22;97451.78;5015626;28;940;-75
2024/02/05 05:09:57;;;;;;;;;;;;;;;21.65;25.38;97455.41;4998906;28;949;-75
2024/02/05 05:12:23;;;;;;;;;;;;;;;21.81;25.21;97460.94;4982457;28;1007;-75
2024/02/05 05:14:49;;;;;;;;;;;;;;;21.60;25.28;97458.84;4998740;28;1237;-75
2024/02/05 05:17:14;;;;;;;;;;;;;;;22.06;24.65;97456.38;5028476;28;1913;-75
2024/02/05 05:19:39;;;;;;;;;;;;;;;21.90;24.99;97465.06;5055921;28;1609;-75
2024/02/05 05:22:05;;;;;;;;;;;;;;;21.76;25.24;97467.19;5029124;28;1514;-75
2024/02/05 05:24:30;;;;;;;;;;;;;;;21.61;25.37;97466.09;5038769;28;931;-75
2024/02/05 05:26:58;;;;;;;;;;;;;;;21.77;25.23;97457.44;5039115;28;1027;-75
2024/02/05 05:29:24;;;;;;;;;;;;;;;21.49;25.64;97452.75;5056646;28;969;-75
2024/02/05 05:31:49;;;;;;;;;;;;;;;21.09;26.00;97456.13;5056922;28;965;-75
2024/02/05 05:34:15;;;;;;;;;;;;;;;21.20;26.10;97453.72;5056590;28;927;-75
2024/02/05 05:36:41;;;;;;;;;;;;;;;21.46;25.35;97453.69;5037730;28;1977;-75
2024/02/05 05:39:07;;;;;;;;;;;;;;;21.68;25.37;97448.84;5036651;28;1667;-75
2024/02/05 05:41:35;;;;;;;;;;;;;;;21.60;25.30;97464.50;5038098;28;1359;-75
2024/02/05 05:44:02;;;;;;;;;;;;;;;21.57;25.38;97448.44;5039109;28;957;-75
2024/02/05 05:46:28;;;;;;;;;;;;;;;21.51;25.30;97447.47;5022084;28;1007;-75
2024/02/05 05:48:54;;;;;;;;;;;;;;;21.44;25.80;97450.50;5056565;28;947;-74
2024/02/05 05:51:19;;;;;;;;;;;;;;;21.62;25.42;97453.53;5038565;28;936;-75
2024/02/05 05:53:45;;;;;;;;;;;;;;;21.50;25.58;97443.00;5038333;28;904;-75
2024/02/05 05:56:11;;;;;;;;;;;;;;;21.60;25.53;97447.50;5037848;28;1977;-75
2024/02/05 05:58:36;;;;;;;;;;;;;;;21.61;25.58;97454.00;5056556;28;1084;-75
2024/02/05 06:01:05;;;;;;;;;;;;;;;21.55;25.56;97451.75;5021787;28;1006;-75
2024/02/05 06:03:35;;;;;;;;;;;;;;;21.14;26.06;97443.41;4982060;28;1142;-75
2024/02/05 06:06:00;;;;;;;;;;;;;;;20.86;26.70;97448.00;4998230;28;957;-75
2024/02/05 06:08:26;;;;;;;;;;;;;;;21.37;25.85;97447.94;5014331;28;1094;-75
2024/02/05 06:10:51;;;;;;;;;;;;;;;21.40;25.73;97461.16;5013212;28;1873;-75
2024/02/05 06:13:17;;;;;;;;;;;;;;;21.46;25.46;97460.16;5013623;28;906;-75
2024/02/05 06:15:42;;;;;;;;;;;;;;;21.62;25.37;97462.03;4997882;28;896;-74
2024/02/05 06:18:08;;;;;;;;;;;;;;;21.72;25.27;97472.19;4955328;29;1969;-75
2024/02/05 06:20:34;;;;;;;;;;;;;;;21.56;25.66;97475.19;4939840;29;1011;-75
2024/02/05 06:22:59;;;;;;;;;;;;;;;21.58;25.42;97481.16;4939778;29;1487;-75
2024/02/05 06:25:25;;;;;;;;;;;;;;;21.33;25.56;97474.31;4955711;29;972;-75
2024/02/05 06:27:51;;;;;;;;;;;;;;;20.96;26.13;97480.78;4955673;28;1015;-75
2024/02/05 06:30:16;;;;;;;;;;;;;;;21.40;25.54;97472.47;4940235;29;960;-75
2024/02/05 06:32:42;;;;;;;;;;;;;;;21.61;25.30;97483.09;4940546;29;1052;-75
2024/02/05 06:35:07;;;;;;;;;;;;;;;21.56;25.22;97480.84;4955083;29;971;-75
2024/02/05 06:37:33;;;;;;;;;;;;;;;21.47;25.62;97486.41;4942769;29;1906;-74
2024/02/05 06:39:58;;;;;;;;;;;;;;;21.42;25.67;97475.66;4943236;29;1916;-75
2024/02/05 06:42:24;;;;;;;;;;;;;;;21.63;25.39;97472.09;4959908;29;889;-75
2024/02/05 06:44:51;;;;;;;;;;;;;;;21.38;25.71;97469.31;4959281;29;992;-74
2024/02/05 06:47:16;;;;;;;;;;;;;;;21.74;25.19;97466.84;4927337;29;985;-75
2024/02/05 06:49:42;;;;;;;;;;;;;;;21.51;25.58;97462.41;4971913;28;1239;-75
2024/02/05 06:52:07;;;;;;;;;;;;;;;21.23;25.81;97464.13;4997520;28;1505;-75
2024/02/05 06:54:33;;;;;;;;;;;;;;;20.88;26.18;97459.63;4997798;28;988;-75
2024/02/05 06:57:00;;;;;;;;;;;;;;;21.27;25.96;97459.13;4997689;28;1910;-75
2024/02/05 06:59:25;;;;;;;;;;;;;;;21.27;25.74;97447.03;4998226;28;975;-75
2024/02/05 07:01:51;;;;;;;;;;;;;;;21.57;25.42;97454.91;4997886;28;973;-75
2024/02/05 07:04:16;;;;;;;;;;;;;;;21.46;25.52;97448.03;4997713;28;987;-75
2024/02/05 07:06:42;;;;;;;;;;;;;;;21.62;25.59;97445.03;5001307;28;1365;-75
2024/02/05 07:09:08;;;;;;;;;;;;;;;21.68;25.39;97448.84;5039867;28;1572;-75
2024/02/05 07:11:34;;;;;;;;;;;;;;;21.64;25.40;97448.19;5025367;28;1220;-75
2024/02/05 07:14:00;;;;;;;;;;;;;;;21.58;25.62;97445.16;5041767;28;987;-75
2024/02/05 07:16:25;;;;;;;;;;;;;;;21.62;25.64;97445.03;5041712;28;1902;-75
2024/02/05 07:18:51;;;;;;;;;;;;;;;21.59;25.82;97443.09;5041603;28;912;-76
2024/02/05 07:21:16;;;;;;;;;;;;;;;21.65;25.72;97432.78;5059355;28;897;-75
2024/02/05 07:23:43;;;;;;;;;;;;;;;21.48;25.85;97434.19;5041350;28;1452;-75
2024/02/05 07:26:08;;;;;;;;;;;;;;;21.60;25.58;97430.53;5058081;28;915;-75
2024/02/05 07:28:34;;;;;;;;;;;;;;;21.16;26.29;97429.63;5058871;28;991;-75
2024/02/05 07:30:59;;;;;;;;;;;;;;;21.39;25.99;97431.28;5058085;28;958;-75
2024/02/05 07:33:25;;;;;;;;;;;;;;;21.53;25.86;97430.78;5058069;28;1049;-75
2024/02/05 07:35:50;;;;;;;;;;;;;;;21.54;26.03;97426.72;5059301;28;904;-74
2024/02/05 07:38:16;;;;;;;;;;;;;;;21.63;25.84;97429.63;5057894;28;1910;-75
2024/02/05 07:40:42;;;;;;;;;;;;;;;21.75;25.55;97427.97;5039967;28;1551;-75
2024/02/05 07:43:07;;;;;;;;;;;;;;;21.40;25.94;97421.53;5058495;28;975;-76
2024/02/05 07:45:33;;;;;;;;;;;;;;;21.26;26.22;97422.81;5041460;28;993;-75
2024/02/05 07:47:58;;;;;;;;;;;;;;;21.36;26.10;97421.69;5040153;28;1426;-75
2024/02/05 07:50:24;;;;;;;;;;;;;;;21.54;26.12;97421.03;5058359;28;955;-75
2024/02/05 07:52:50;;;;;;;;;;;;;;;21.66;25.88;97430.72;5040836;28;1005;-75
2024/02/05 07:55:15;;;;;;;;;;;;;;;21.75;25.53;97439.31;5024263;28;1074;-74
2024/02/05 07:57:41;;;;;;;;;;;;;;;21.73;25.42;97445.44;5039904;28;1975;-75
2024/02/05 08:00:07;;;;;;;;;;;;;;;21.43;26.20;97448.94;4999516;28;2148;-75
2024/02/05 08:02:39;;;;;;;;;;;;;;;20.84;26.85;97464.63;4976571;28;1330;-74
2024/02/05 08:05:04;;;;;;;;;;;;;;;21.29;26.24;97456.63;4961107;28;1231;-75
2024/02/05 08:07:30;;;;;;;;;;;;;;;21.63;25.69;97463.59;4961024;28;899;-75
2024/02/05 08:09:55;;;;;;;;;;;;;;;21.56;26.05;97463.84;4976984;28;1359;-75
2024/02/05 08:12:22;;;;;;;;;;;;;;;21.73;25.39;97468.09;4960748;28;922;-75
2024/02/05 08:14:47;;;;;;;;;;;;;;;21.67;25.79;97469.94;4977032;28;954;-75
2024/02/05 08:17:13;;;;;;;;;;;;;;;21.45;26.16;97477.56;4976869;28;1906;-75
2024/02/05 08:19:38;;;;;;;;;;;;;;;21.63;25.60;97463.59;4976346;28;1331;-75
2024/02/05 08:22:04;;;;;;;;;;;;;;;21.49;26.13;97470.53;4977014;28;1026;-75
2024/02/05 08:24:29;;;;;;;;;;;;;;;21.59;26.07;97474.25;4976841;28;1042;-75
2024/02/05 08:26:55;;;;;;;;;;;;;;;21.70;25.83;97480.31;4961143;28;1044;-74
2024/02/05 08:29:22;;;;;;;;;;;;;;;21.20;26.22;97469.91;4956871;28;1369;-74
2024/02/05 08:31:48;;;;;;;;;;;;;;;21.35;25.98;97470.22;4972948;28;981;-75
2024/02/05 08:34:14;;;;;;;;;;;;;;;21.27;26.28;97476.09;5021988;28;1429;-75
2024/02/05 08:36:40;;;;;;;;;;;;;;;21.62;25.94;97473.34;5023829;28;1914;-75
2024/02/05 08:39:10;;;;;;;;;;;;;;;21.64;25.79;97476.50;5022649;28;1523;-75
2024/02/05 08:41:36;;;;;;;;;;;;;;;21.45;26.09;97475.56;4976128;28;984;-75
2024/02/05 08:44:02;;;;;;;;;;;;;;;21.65;25.83;97477.28;4960120;28;992;-75
2024/02/05 08:46:27;;;;;;;;;;;;;;;21.55;25.65;97484.91;4960588;28;922;-75
2024/02/05 08:48:53;;;;;;;;;;;;;;;21.57;25.77;97488.09;4958253;28;1487;-75
2024/02/05 08:51:18;;;;;;;;;;;;;;;21.74;25.86;97483.03;4967471;28;1799;-75
2024/02/05 08:53:46;;;;;;;;;;;;;;;21.54;25.86;97480.50;4940640;29;937;-75
2024/02/05 08:56:11;;;;;;;;;;;;;;;21.32;26.23;97471.94;4956100;28;1910;-75
2024/02/05 08:58:37;;;;;;;;;;;;;;;21.28;26.48;97474.84;4959844;28;1128;-75
2024/02/05 09:01:02;;;;;;;;;;;;;;;21.26;26.35;97462.44;4988283;28;1461;-75
2024/02/05 09:03:28;;;;;;;;;;;;;;;21.84;25.29;97451.50;4976694;28;966;-75
2024/02/05 09:05:53;;;;;;;;;;;;;;;21.83;25.45;97455.59;4976251;28;1012;-75
2024/02/05 09:08:19;;;;;;;;;;;;;;;21.74;25.56;97458.34;4960039;28;1714;-75
2024/02/05 09:10:44;;;;;;;;;;;;;;;21.87;25.53;97437.69;4976204;28;1098;-75
2024/02/05 09:13:15;;;;;;;;;;;;;;;21.75;25.59;97430.81;5094333;27;1329;-75
2024/02/05 09:15:42;;;;;;;;;;;;;;;21.72;25.73;97431.75;5111398;28;1258;-75
2024/02/05 09:18:10;;;;;;;;;;;;;;;21.35;26.47;97430.59;5095146;28;973;-75
2024/02/05 09:20:36;;;;;;;;;;;;;;;21.25;26.54;97433.34;5094993;28;954;-75
2024/02/05 09:23:02;;;;;;;;;;;;;;;21.18;26.52;97430.75;5094729;28;1105;-75
2024/02/05 09:25:27;;;;;;;;;;;;;;;21.44;26.13;97411.69;5111928;28;1077;-75
2024/02/05 09:27:53;;;;;;;;;;;;;;;21.65;25.89;97421.44;5111633;28;1118;-75
2024/02/05 09:30:21;;;;;;;;;;;;;;;21.63;26.14;97415.47;5094404;28;1427;-75
2024/02/05 09:32:47;;;;;;;;;;;;;;;21.63;25.99;97412.63;5121059;28;1906;-75
2024/02/05 09:35:13;;;;;;;;;;;;;;;21.60;26.14;97396.56;5094689;28;920;-75
2024/02/05 09:37:38;;;;;;;;;;;;;;;21.55;26.06;97405.63;5108948;28;1627;-75
2024/02/05 09:40:04;;;;;;;;;;;;;;;21.55;26.31;97395.13;5114956;28;961;-75
2024/02/05 09:42:30;;;;;;;;;;;;;;;21.33;26.75;97408.44;5114722;28;1105;-75
2024/02/05 09:44:55;;;;;;;;;;;;;;;21.33;26.77;97406.41;5114836;28;981;-75
2024/02/05 09:47:21;;;;;;;;;;;;;;;21.70;26.09;97394.59;5079378;28;1197;-75
2024/02/05 09:49:48;;;;;;;;;;;;;;;21.65;26.23;97401.63;5110877;28;1440;-75
2024/02/05 09:52:14;;;;;;;;;;;;;;;21.79;26.09;97397.50;5071766;28;1910;-76
2024/02/05 09:54:41;;;;;;;;;;;;;;;21.75;25.97;97402.50;5073075;28;1772;-75
2024/02/05 09:57:10;;;;;;;;;;;;;;;21.66;26.00;97403.22;5088060;28;1268;-75
2024/02/05 09:59:36;;;;;;;;;;;;;;;21.17;26.76;97389.56;5105330;28;904;-75
2024/02/05 10:02:06;;;;;;;;;;;;;;;21.36;26.43;97382.06;5105097;28;1429;-75
2024/02/05 10:04:50;;;;;;;;;;;;;;;21.58;26.23;97382.09;5055717;28;1176;-75
2024/02/05 10:07:16;;;;;;;;;;;;;;;21.56;26.18;97384.59;5071585;28;972;-75
2024/02/05 10:09:42;;;;;;;;;;;;;;;21.60;26.45;97365.41;5054438;28;943;-75
2024/02/05 10:12:11;;;;;;;;;;;;;;;21.47;26.32;97364.69;5059508;28;1910;-75
2024/02/05 10:14:43;;;;;;;;;;;;;;;21.42;26.47;97373.78;5071037;28;968;-75
2024/02/05 10:17:08;;;;;;;;;;;;;;;21.53;26.33;97374.19;5071157;28;904;-75
2024/02/05 10:19:34;;;;;;;;;;;;;;;21.47;26.21;97381.69;5088173;28;965;-75
2024/02/05 10:22:00;;;;;;;;;;;;;;;21.37;26.51;97386.47;5070707;28;1314;-75
2024/02/05 10:24:26;;;;;;;;;;;;;;;21.16;26.96;97390.81;5092709;28;959;-75
2024/02/05 10:26:51;;;;;;;;;;;;;;;21.51;26.51;97371.03;5058830;28;1006;-75
2024/02/05 10:29:20;;;;;;;;;;;;;;;21.52;26.46;97372.59;5059114;28;917;-75
2024/02/05 10:31:47;;;;;;;;;;;;;;;21.64;26.12;97380.25;5095152;28;1910;-76
2024/02/05 10:34:16;;;;;;;;;;;;;;;21.64;26.07;97368.91;5078701;28;930;-75
2024/02/05 10:36:42;;;;;;;;;;;;;;;21.21;27.01;97373.25;5117199;28;975;-75
2024/02/05 10:39:08;;;;;;;;;;;;;;;21.19;26.84;97384.25;5100156;28;979;-75
2024/02/05 10:41:33;;;;;;;;;;;;;;;21.31;26.65;97374.94;5096311;28;1475;-75
2024/02/05 10:43:59;;;;;;;;;;;;;;;21.59;26.15;97378.00;5062767;28;1033;-75
2024/02/05 10:46:31;;;;;;;;;;;;;;;21.79;25.91;97374.84;5079523;28;971;-75
2024/02/05 10:48:56;;;;;;;;;;;;;;;21.53;26.29;97388.34;5079742;28;971;-75
2024/02/05 10:51:22;;;;;;;;;;;;;;;21.39;26.45;97386.00;5079623;28;1975;-75
2024/02/05 10:53:47;;;;;;;;;;;;;;;21.30;26.92;97390.34;5094773;28;1431;-75
2024/02/05 10:56:13;;;;;;;;;;;;;;;21.62;26.16;97377.09;5096435;28;987;-75
2024/02/05 10:58:41;;;;;;;;;;;;;;;21.53;26.57;97374.19;5096511;28;1169;-75
2024/02/05 11:01:07;;;;;;;;;;;;;;;21.73;26.26;97371.81;5059351;28;941;-76
2024/02/05 11:03:37;;;;;;;;;;;;;;;21.85;26.06;97378.66;5094081;28;1331;-75
2024/02/05 11:06:03;;;;;;;;;;;;;;;21.41;26.67;97383.53;5096030;28;1085;-75
2024/02/05 11:08:29;;;;;;;;;;;;;;;21.25;26.84;97381.63;5029311;28;1018;-75
2024/02/05 11:10:55;;;;;;;;;;;;;;;21.29;26.54;97368.13;5072189;28;1963;-75
2024/02/05 11:13:28;;;;;;;;;;;;;;;21.62;26.49;97357.28;5051236;28;1539;-75
2024/02/05 11:15:54;;;;;;;;;;;;;;;21.52;26.30;97364.09;5019441;28;1077;-75
2024/02/05 11:18:23;;;;;;;;;;;;;;;21.78;26.05;97350.63;5036008;28;1244;-75
2024/02/05 11:20:48;;;;;;;;;;;;;;;21.65;26.25;97362.00;5019074;28;968;-75
2024/02/05 11:23:14;;;;;;;;;;;;;;;21.65;26.08;97353.50;5036362;28;1402;-75
2024/02/05 11:25:40;;;;;;;;;;;;;;;21.15;26.81;97349.63;5051999;28;973;-75
2024/02/05 11:28:10;;;;;;;;;;;;;;;21.07;27.03;97345.44;5035694;28;1066;-75
2024/02/05 11:30:36;;;;;;;;;;;;;;;21.61;26.36;97338.72;5035364;28;1429;-76
2024/02/05 11:33:02;;;;;;;;;;;;;;;21.45;26.25;97350.19;5068124;28;1906;-76
2024/02/05 11:35:28;;;;;;;;;;;;;;;21.45;26.44;97355.84;5076600;28;937;-75
2024/02/05 11:38:02;;;;;;;;;;;;;;;21.30;26.57;97350.72;5077510;28;887;-75
2024/02/05 11:40:28;;;;;;;;;;;;;;;21.55;26.30;97340.53;5093117;28;960;-75
2024/02/05 11:43:03;;;;;;;;;;;;;;;21.63;26.36;97333.38;5080359;28;1311;-75
2024/02/05 11:45:30;;;;;;;;;;;;;;;21.55;26.20;97340.53;5057451;28;941;-75
2024/02/05 11:47:57;;;;;;;;;;;;;;;21.23;26.75;97322.66;5089628;28;981;-75
2024/02/05 11:50:22;;;;;;;;;;;;;;;20.96;27.14;97331.69;5056216;28;928;-75
2024/02/05 11:52:48;;;;;;;;;;;;;;;21.26;26.87;97333.06;5057604;28;1913;-75
2024/02/05 11:55:16;;;;;;;;;;;;;;;21.41;26.41;97315.59;5039696;28;1373;-75
2024/02/05 11:57:43;;;;;;;;;;;;;;;21.59;26.57;97325.00;5057372;28;1164;-75
2024/02/05 12:00:18;;;;;;;;;;;;;;;21.65;26.39;97330.84;5056097;28;862;-75
2024/02/05 12:02:44;;;;;;;;;;;;;;;21.52;26.61;97339.41;5065471;28;1407;-75
2024/02/05 12:05:10;;;;;;;;;;;;;;;21.47;26.55;97337.19;5109922;28;878;-75
2024/02/05 12:07:37;;;;;;;;;;;;;;;21.21;26.74;97341.34;5076002;28;893;-75
2024/02/05 12:10:02;;;;;;;;;;;;;;;21.28;26.73;97335.41;5092643;28;1209;-75
2024/02/05 12:12:31;;;;;;;;;;;;;;;21.44;26.49;97343.75;5089752;28;1914;-75
2024/02/05 12:14:56;;;;;;;;;;;;;;;21.52;26.40;97345.09;5057626;28;1039;-75
2024/02/05 12:17:22;;;;;;;;;;;;;;;21.54;26.52;97336.13;5058019;28;956;-75
2024/02/05 12:19:47;;;;;;;;;;;;;;;21.76;26.09;97331.25;5057798;28;995;-75
2024/02/05 12:22:14;;;;;;;;;;;;;;;21.08;27.13;97345.00;5074290;28;1357;-76
2024/02/05 12:24:40;;;;;;;;;;;;;;;21.39;26.76;97346.38;5074492;28;970;-75
2024/02/05 12:27:05;;;;;;;;;;;;;;;21.46;26.56;97351.81;5074468;28;985;-75
2024/02/05 12:29:32;;;;;;;;;;;;;;;21.43;26.47;97341.38;5057719;28;1123;-75
2024/02/05 12:32:07;;;;;;;;;;;;;;;21.25;26.88;97342.81;5076196;28;1973;-75
2024/02/05 12:34:33;;;;;;;;;;;;;;;21.27;27.03;97357.28;5093640;28;1376;-75
2024/02/05 12:36:59;;;;;;;;;;;;;;;21.37;26.86;97355.34;5094749;28;1006;-75
2024/02/05 12:39:24;;;;;;;;;;;;;;;21.37;26.70;97351.72;5094371;28;951;-75
2024/02/05 12:41:50;;;;;;;;;;;;;;;21.20;26.71;97351.09;5093957;28;1468;-75
2024/02/05 12:44:16;;;;;;;;;;;;;;;21.30;26.66;97356.41;5027465;28;1521;-75
2024/02/05 12:46:41;;;;;;;;;;;;;;;21.46;26.55;97351.81;5047788;28;972;-75
2024/02/05 12:49:07;;;;;;;;;;;;;;;21.54;26.14;97355.94;5056413;28;899;-75
2024/02/05 12:51:32;;;;;;;;;;;;;;;21.57;26.18;97346.53;5056425;28;1910;-75
2024/02/05 12:53:58;;;;;;;;;;;;;;;21.61;26.25;97355.69;5056418;28;1409;-75